createdAt,value
2023-10-15T00:00:27.003Z,1.67
2023-10-15T00:02:55.055Z,1.70
2023-10-15T00:05:26.477Z,1.50
2023-10-15T00:07:53.976Z,1.70
2023-10-15T00:10:23.435Z,1.90
2023-10-15T00:12:53.891Z,1.57
2023-10-15T00:15:24.626Z,1.57
2023-10-15T00:17:58.183Z,1.93
2023-10-15T00:20:29.769Z,1.50
2023-10-15T00:22:57.261Z,1.43
2023-10-15T00:25:24.760Z,1.60
2023-10-15T00:27:55.817Z,1.50
2023-10-15T00:30:23.677Z,1.60
2023-10-15T00:32:53.645Z,1.53
2023-10-15T00:35:23.382Z,1.50
2023-10-15T00:37:56.035Z,1.70
2023-10-15T00:40:25.396Z,1.63
2023-10-15T00:42:53.634Z,1.70
2023-10-15T00:45:22.701Z,1.77
2023-10-15T00:48:03.838Z,1.80
2023-10-15T00:50:37.567Z,1.60
2023-10-15T00:53:22.292Z,1.33
2023-10-15T00:55:52.183Z,1.40
2023-10-15T00:58:32.164Z,1.57
2023-10-15T01:01:21.230Z,1.80
2023-10-15T01:03:53.232Z,1.80
2023-10-15T01:06:36.455Z,1.60
2023-10-15T01:09:11.412Z,1.40
2023-10-15T01:11:44.949Z,1.63
2023-10-15T01:14:12.876Z,1.53
2023-10-15T01:16:41.781Z,1.60
2023-10-15T01:19:19.861Z,1.80
2023-10-15T01:21:54.107Z,1.43
2023-10-15T01:24:24.085Z,1.53
2023-10-15T01:27:01.038Z,1.40
2023-10-15T01:29:29.179Z,1.80
2023-10-15T01:31:59.581Z,1.60
2023-10-15T01:34:27.655Z,1.60
2023-10-15T01:36:58.037Z,1.40
2023-10-15T01:39:33.903Z,1.57
2023-10-15T01:42:07.765Z,1.37
2023-10-15T01:44:40.054Z,1.60
2023-10-15T01:47:10.534Z,1.40
2023-10-15T01:49:38.206Z,1.33
2023-10-15T01:52:11.034Z,1.47
2023-10-15T01:54:39.027Z,1.70
2023-10-15T01:57:08.299Z,1.70
2023-10-15T01:59:46.099Z,1.33
2023-10-15T02:02:14.970Z,1.53
2023-10-15T02:04:46.588Z,1.50
2023-10-15T02:07:18.294Z,1.53
2023-10-15T02:09:46.077Z,1.33
2023-10-15T02:12:18.811Z,1.60
2023-10-15T02:14:48.730Z,1.37
2023-10-15T02:17:19.654Z,1.37
2023-10-15T02:19:48.810Z,1.37
2023-10-15T02:22:16.736Z,1.70
2023-10-15T02:24:48.418Z,1.40
2023-10-15T02:27:23.164Z,1.67
2023-10-15T02:29:51.543Z,1.60
2023-10-15T02:32:32.158Z,1.60
2023-10-15T02:34:59.978Z,1.70
2023-10-15T02:37:29.092Z,1.20
2023-10-15T02:39:59.875Z,1.23
2023-10-15T02:42:33.026Z,1.40
2023-10-15T02:45:01.595Z,1.67
2023-10-15T02:47:42.162Z,1.40
2023-10-15T02:50:16.860Z,1.50
2023-10-15T02:52:48.842Z,1.43
2023-10-15T02:55:28.098Z,1.50
2023-10-15T02:58:02.165Z,1.20
2023-10-15T03:00:30.380Z,1.23
2023-10-15T03:02:58.070Z,1.30
2023-10-15T03:05:31.565Z,1.20
2023-10-15T03:08:00.771Z,1.47
2023-10-15T03:10:45.831Z,1.67
2023-10-15T03:13:15.321Z,1.40
2023-10-15T03:15:49.851Z,1.50
2023-10-15T03:18:23.442Z,1.37
2023-10-15T03:20:51.361Z,1.30
2023-10-15T03:23:18.929Z,1.40
2023-10-15T03:25:49.274Z,1.47
2023-10-15T03:28:19.283Z,1.40
2023-10-15T03:30:46.793Z,1.43
2023-10-15T03:33:14.519Z,1.30
2023-10-15T03:35:46.632Z,1.20
2023-10-15T03:38:16.288Z,1.17
2023-10-15T03:40:51.069Z,1.30
2023-10-15T03:43:22.621Z,1.10
2023-10-15T03:45:53.151Z,1.73
2023-10-15T03:48:22.780Z,1.40
2023-10-15T03:50:56.668Z,1.50
2023-10-15T03:53:29.037Z,1.27
2023-10-15T03:55:58.274Z,1.53
2023-10-15T03:58:27.510Z,1.13
2023-10-15T04:01:02.462Z,1.40
2023-10-15T04:03:30.233Z,1.20
2023-10-15T04:06:02.289Z,1.33
2023-10-15T04:08:32.146Z,1.20
2023-10-15T04:11:00.147Z,1.33
2023-10-15T04:13:29.478Z,1.13
2023-10-15T04:15:58.138Z,1.20
2023-10-15T04:18:27.295Z,1.30
2023-10-15T04:20:56.411Z,1.20
2023-10-15T04:23:32.282Z,1.17
2023-10-15T04:26:01.760Z,1.40
2023-10-15T04:28:31.708Z,1.50
2023-10-15T04:30:59.453Z,1.30
2023-10-15T04:33:30.472Z,1.40
2023-10-15T04:35:58.141Z,1.10
2023-10-15T04:38:29.359Z,1.30
2023-10-15T04:41:04.956Z,1.30
2023-10-15T04:43:43.131Z,1.60
2023-10-15T04:46:12.678Z,1.53
2023-10-15T04:48:40.249Z,1.10
2023-10-15T04:51:13.735Z,1.27
2023-10-15T04:53:45.802Z,1.20
2023-10-15T04:56:13.733Z,1.30
2023-10-15T04:58:42.695Z,1.30
2023-10-15T05:01:10.952Z,1.50
2023-10-15T05:03:39.400Z,1.20
2023-10-15T05:06:11.708Z,1.40
2023-10-15T05:08:41.493Z,1.40
2023-10-15T05:11:11.074Z,1.20
2023-10-15T05:13:38.680Z,1.43
2023-10-15T05:16:07.741Z,1.27
2023-10-15T05:18:35.260Z,1.27
2023-10-15T05:21:03.092Z,1.30
2023-10-15T05:23:30.866Z,1.03
2023-10-15T05:25:58.653Z,1.30
2023-10-15T05:28:27.708Z,1.27
2023-10-15T05:30:55.497Z,1.60
2023-10-15T05:33:24.352Z,1.30
2023-10-15T05:35:52.277Z,1.37
2023-10-15T05:38:19.836Z,1.20
2023-10-15T05:40:47.605Z,1.40
2023-10-15T05:43:15.371Z,1.30
2023-10-15T05:45:43.592Z,1.20
2023-10-15T05:48:11.100Z,1.90
2023-10-15T05:50:40.863Z,1.87
2023-10-15T05:53:08.451Z,1.67
2023-10-15T05:55:36.043Z,1.50
2023-10-15T05:58:03.673Z,1.60
2023-10-15T06:00:36.957Z,1.50
2023-10-15T06:03:05.479Z,1.63
2023-10-15T06:05:33.014Z,1.53
2023-10-15T06:08:01.861Z,1.70
2023-10-15T06:10:30.705Z,1.37
2023-10-15T06:12:59.225Z,1.50
2023-10-15T06:15:27.177Z,1.40
2023-10-15T06:17:54.849Z,1.40
2023-10-15T06:20:22.588Z,1.80
2023-10-15T06:22:50.573Z,1.70
2023-10-15T06:25:19.752Z,1.50
2023-10-15T06:27:47.786Z,1.60
2023-10-15T06:30:18.556Z,1.47
2023-10-15T06:32:49.993Z,1.30
2023-10-15T06:35:20.262Z,1.60
2023-10-15T06:37:47.962Z,1.80
2023-10-15T06:40:23.164Z,1.40
2023-10-15T06:42:54.141Z,1.70
2023-10-15T06:45:22.717Z,1.40
2023-10-15T06:47:53.881Z,1.10
2023-10-15T06:50:25.924Z,1.50
2023-10-15T06:52:55.118Z,1.77
2023-10-15T06:55:23.543Z,1.57
2023-10-15T06:57:54.701Z,1.57
2023-10-15T07:00:25.835Z,1.40
2023-10-15T07:02:54.802Z,1.40
2023-10-15T07:05:24.795Z,1.60
2023-10-15T07:07:52.842Z,1.90
2023-10-15T07:10:22.530Z,1.50
2023-10-15T07:12:51.466Z,1.70
2023-10-15T07:15:22.306Z,1.70
2023-10-15T07:17:51.551Z,1.50
2023-10-15T07:20:21.676Z,1.97
2023-10-15T07:22:51.396Z,1.90
2023-10-15T07:25:20.342Z,2.00
2023-10-15T07:27:49.972Z,1.90
2023-10-15T07:30:21.087Z,1.80
2023-10-15T07:32:49.179Z,2.00
2023-10-15T07:35:17.369Z,1.83
2023-10-15T07:37:46.168Z,2.20
2023-10-15T07:40:19.197Z,2.30
2023-10-15T07:42:49.503Z,2.50
2023-10-15T07:45:18.438Z,2.40
2023-10-15T07:47:47.740Z,2.40
2023-10-15T07:50:18.096Z,2.30
2023-10-15T07:52:46.915Z,2.17
2023-10-15T07:55:14.669Z,2.50
2023-10-15T07:57:42.240Z,2.30
2023-10-15T08:00:16.042Z,2.00
2023-10-15T08:02:43.855Z,2.10
2023-10-15T08:05:13.488Z,1.90
2023-10-15T08:07:42.619Z,2.10
2023-10-15T08:10:11.086Z,1.90
2023-10-15T08:12:39.043Z,1.60
2023-10-15T08:15:08.339Z,1.63
2023-10-15T08:17:36.074Z,1.87
2023-10-15T08:20:05.207Z,2.00
2023-10-15T08:22:34.282Z,2.10
2023-10-15T08:25:01.759Z,1.80
2023-10-15T08:27:29.265Z,1.80
2023-10-15T08:29:56.754Z,1.67
2023-10-15T08:32:28.018Z,1.60
2023-10-15T08:34:55.653Z,1.63
2023-10-15T08:37:23.831Z,1.80
2023-10-15T08:39:53.011Z,1.70
2023-10-15T08:42:27.823Z,1.60
2023-10-15T08:44:59.274Z,1.80
2023-10-15T08:47:27.233Z,1.70
2023-10-15T08:49:59.768Z,1.83
2023-10-15T08:52:29.246Z,1.87
2023-10-15T08:55:00.155Z,2.00
2023-10-15T08:57:28.237Z,1.70
2023-10-15T08:59:56.498Z,1.77
2023-10-15T09:02:24.437Z,1.67
2023-10-15T09:04:54.277Z,1.40
2023-10-15T09:07:22.570Z,1.67
2023-10-15T09:09:51.216Z,1.47
2023-10-15T09:12:20.100Z,1.30
2023-10-15T09:14:48.629Z,1.47
2023-10-15T09:17:17.982Z,1.30
2023-10-15T09:19:47.575Z,1.20
2023-10-15T09:22:16.528Z,1.37
2023-10-15T09:24:44.028Z,1.20
2023-10-15T09:27:11.566Z,1.30
2023-10-15T09:29:41.937Z,1.27
2023-10-15T09:32:09.567Z,1.60
2023-10-15T09:34:39.050Z,1.60
2023-10-15T09:37:07.748Z,1.50
2023-10-15T09:39:36.852Z,1.20
2023-10-15T09:42:04.571Z,1.17
2023-10-15T09:44:34.233Z,1.33
2023-10-15T09:47:03.453Z,1.27
2023-10-15T09:49:32.147Z,1.20
2023-10-15T09:52:02.882Z,1.20
2023-10-15T09:54:32.700Z,1.60
2023-10-15T09:57:02.739Z,1.40
2023-10-15T09:59:31.621Z,1.37
2023-10-15T10:02:07.086Z,1.40
2023-10-15T10:04:54.186Z,1.40
2023-10-15T10:07:39.823Z,1.43
2023-10-15T10:10:36.084Z,1.30
2023-10-15T10:13:35.279Z,1.50
2023-10-15T10:16:13.373Z,1.17
2023-10-15T10:18:41.636Z,1.40
2023-10-15T10:21:12.609Z,1.20
2023-10-15T10:23:49.222Z,1.50
2023-10-15T10:26:17.634Z,2.90
2023-10-15T10:28:45.368Z,1.20
2023-10-15T10:31:14.739Z,1.10
2023-10-15T10:33:55.062Z,1.03
2023-10-15T10:36:27.384Z,1.20
2023-10-15T10:39:00.719Z,1.00
2023-10-15T10:41:35.829Z,1.10
2023-10-15T10:44:19.061Z,1.10
2023-10-15T10:46:53.641Z,1.00
2023-10-15T10:49:29.676Z,0.90
2023-10-15T10:52:07.633Z,1.10
2023-10-15T10:54:37.101Z,1.10
2023-10-15T10:57:09.145Z,0.90
2023-10-15T10:59:38.951Z,1.03
2023-10-15T11:02:07.693Z,1.03
2023-10-15T11:04:36.212Z,1.47
2023-10-15T11:07:05.276Z,1.38
2023-10-15T11:09:38.208Z,1.45
2023-10-15T11:12:08.106Z,1.10
2023-10-15T11:14:37.679Z,1.02
2023-10-15T11:17:08.964Z,1.02
2023-10-15T11:19:37.677Z,0.98
2023-10-15T11:22:05.555Z,1.42
2023-10-15T11:24:33.155Z,1.23
2023-10-15T11:27:02.164Z,1.23
2023-10-15T11:29:32.878Z,1.30
2023-10-15T11:32:01.951Z,1.15
2023-10-15T11:34:32.763Z,1.10
2023-10-15T11:37:02.561Z,1.10
2023-10-15T11:39:38.730Z,0.70
2023-10-15T11:42:09.465Z,1.10
2023-10-15T11:44:39.262Z,1.23
2023-10-15T11:47:13.154Z,1.00
2023-10-15T11:49:43.653Z,0.90
2023-10-15T11:52:15.483Z,1.00
2023-10-15T11:54:49.372Z,0.80
2023-10-15T11:57:23.778Z,0.90
2023-10-15T11:59:55.755Z,1.00
2023-10-15T12:02:25.300Z,1.00
2023-10-15T12:04:53.833Z,1.10
2023-10-15T12:09:50.607Z,1.17
2023-10-15T12:12:19.344Z,1.00
2023-10-15T12:14:48.434Z,1.30
2023-10-15T12:17:18.163Z,0.88
2023-10-15T12:19:50.883Z,0.90
2023-10-15T12:22:22.436Z,1.30
2023-10-15T12:24:49.977Z,0.98
2023-10-15T12:27:17.502Z,1.00
2023-10-15T12:29:45.197Z,1.20
2023-10-15T12:32:14.208Z,0.93
2023-10-15T12:34:41.765Z,0.90
2023-10-15T12:37:09.702Z,1.00
2023-10-15T12:39:41.487Z,1.00
2023-10-15T12:42:10.029Z,0.90
2023-10-15T12:44:41.374Z,1.13
2023-10-15T12:47:10.215Z,0.80
2023-10-15T12:49:40.716Z,0.90
2023-10-15T12:52:09.353Z,0.82
2023-10-15T12:54:36.996Z,0.88
2023-10-15T12:57:05.466Z,1.00
2023-10-15T12:59:35.764Z,0.82
2023-10-15T13:02:05.544Z,1.08
2023-10-15T13:04:33.358Z,1.13
2023-10-15T13:07:04.690Z,1.20
2023-10-15T13:09:33.918Z,1.05
2023-10-15T13:12:03.399Z,0.90
2023-10-15T13:14:30.970Z,0.85
2023-10-15T13:16:58.708Z,1.05
2023-10-15T13:19:27.365Z,1.00
2023-10-15T13:21:54.923Z,1.00
2023-10-15T13:24:23.812Z,0.75
2023-10-15T13:26:51.918Z,0.90
2023-10-15T13:29:20.338Z,1.00
2023-10-15T13:31:49.740Z,1.13
2023-10-15T13:34:17.244Z,1.10
2023-10-15T13:36:44.687Z,1.20
2023-10-15T13:39:19.645Z,1.17
2023-10-15T13:41:49.807Z,1.00
2023-10-15T13:44:17.387Z,1.00
2023-10-15T13:46:48.248Z,0.98
2023-10-15T13:49:18.407Z,0.88
2023-10-15T13:51:46.081Z,0.82
2023-10-15T13:54:13.923Z,0.90
2023-10-15T13:56:42.802Z,0.90
2023-10-15T13:59:13.197Z,0.93
2023-10-15T14:01:42.932Z,1.00
2023-10-15T14:04:11.059Z,0.98
2023-10-15T14:06:38.871Z,0.90
2023-10-15T14:09:09.255Z,0.95
2023-10-15T14:11:38.339Z,0.90
2023-10-15T14:14:06.218Z,0.95
2023-10-15T14:16:35.710Z,0.90
2023-10-15T14:19:03.303Z,0.93
2023-10-15T14:21:31.373Z,0.70
2023-10-15T14:23:58.866Z,0.65
2023-10-15T14:26:26.348Z,1.00
2023-10-15T14:28:53.833Z,0.73
2023-10-15T14:31:22.919Z,0.73
2023-10-15T14:33:51.818Z,0.82
2023-10-15T14:36:19.613Z,0.77
2023-10-15T14:38:47.260Z,0.73
2023-10-15T14:41:15.727Z,0.90
2023-10-15T14:43:43.302Z,0.60
2023-10-15T14:46:10.864Z,0.70
2023-10-15T14:48:38.344Z,0.80
2023-10-15T14:51:07.129Z,0.70
2023-10-15T14:53:35.408Z,0.80
2023-10-15T14:56:04.374Z,0.90
2023-10-15T14:58:31.905Z,0.70
2023-10-15T15:00:59.397Z,0.70
2023-10-15T15:03:27.617Z,0.75
2023-10-15T15:05:55.262Z,0.80
2023-10-15T15:08:24.110Z,0.70
2023-10-15T15:10:51.820Z,1.00
2023-10-15T15:13:19.376Z,0.73
2023-10-15T15:15:46.827Z,0.90
2023-10-15T15:18:14.979Z,0.70
2023-10-15T15:20:42.563Z,0.70
2023-10-15T15:23:10.257Z,0.70
2023-10-15T15:25:40.434Z,0.70
2023-10-15T15:28:07.940Z,0.80
2023-10-15T15:30:35.545Z,0.70
2023-10-15T15:33:03.599Z,0.77
2023-10-15T15:35:31.171Z,0.77
2023-10-15T15:37:58.744Z,0.70
2023-10-15T15:40:26.309Z,0.95
2023-10-15T15:42:55.136Z,0.88
2023-10-15T15:45:23.010Z,0.80
2023-10-15T15:47:52.782Z,0.80
2023-10-15T15:50:20.551Z,0.68
2023-10-15T15:52:48.130Z,0.73
2023-10-15T15:55:15.703Z,0.80
2023-10-15T15:57:45.474Z,0.67
2023-10-15T16:00:18.034Z,0.80
2023-10-15T16:02:45.684Z,0.80
2023-10-15T16:05:15.385Z,0.73
2023-10-15T16:07:43.141Z,0.80
2023-10-15T16:10:11.813Z,0.70
2023-10-15T16:12:39.325Z,0.93
2023-10-15T16:15:08.034Z,0.90
2023-10-15T16:17:38.009Z,0.80
2023-10-15T16:20:09.798Z,0.90
2023-10-15T16:22:38.673Z,0.80
2023-10-15T16:25:07.907Z,0.90
2023-10-15T16:27:35.939Z,0.87
2023-10-15T16:30:04.616Z,1.03
2023-10-15T16:32:32.222Z,1.77
2023-10-15T16:35:01.098Z,4.37
2023-10-15T16:37:28.622Z,3.07
2023-10-15T16:39:56.745Z,4.33
2023-10-15T16:42:26.509Z,4.80
2023-10-15T16:44:54.107Z,2.50
2023-10-15T16:47:22.004Z,1.70
2023-10-15T16:49:49.517Z,1.60
2023-10-15T16:52:18.400Z,1.40
2023-10-15T16:54:45.872Z,0.90
2023-10-15T16:57:13.418Z,1.17
2023-10-15T16:59:42.732Z,1.10
2023-10-15T17:02:10.460Z,1.00
2023-10-15T17:04:38.073Z,0.83
2023-10-15T17:07:05.676Z,0.80
2023-10-15T17:09:34.509Z,0.77
2023-10-15T17:12:02.043Z,0.63
2023-10-15T17:14:30.092Z,0.80
2023-10-15T17:16:59.875Z,0.70
2023-10-15T17:19:27.442Z,0.73
2023-10-15T17:21:54.923Z,0.80
2023-10-15T17:24:22.495Z,0.80
2023-10-15T17:26:51.316Z,0.90
2023-10-15T17:29:21.441Z,0.80
2023-10-15T17:31:50.986Z,0.63
2023-10-15T17:34:18.486Z,0.83
2023-10-15T17:36:54.976Z,0.97
2023-10-15T17:39:26.032Z,1.40
2023-10-15T17:41:56.693Z,1.60
2023-10-15T17:44:24.596Z,1.20
2023-10-15T17:46:52.352Z,1.20
2023-10-15T17:49:19.905Z,1.10
2023-10-15T17:51:47.450Z,1.30
2023-10-15T17:54:14.933Z,1.30
2023-10-15T17:56:42.429Z,1.33
2023-10-15T17:59:11.773Z,1.20
2023-10-15T18:01:39.710Z,1.27
2023-10-15T18:04:07.544Z,1.47
2023-10-15T18:06:37.938Z,1.40
2023-10-15T18:09:05.617Z,1.37
2023-10-15T18:11:33.186Z,1.40
2023-10-15T18:14:00.742Z,1.30
2023-10-15T18:16:29.604Z,1.20
2023-10-15T18:19:01.217Z,1.40
2023-10-15T18:21:28.779Z,1.30
2023-10-15T18:23:57.016Z,1.30
2023-10-15T18:26:24.683Z,1.13
2023-10-15T18:28:52.530Z,1.20
2023-10-15T18:31:22.328Z,1.60
2023-10-15T18:33:51.902Z,1.20
2023-10-15T18:36:19.900Z,1.17
2023-10-15T18:38:47.436Z,0.90
2023-10-15T18:41:14.979Z,1.10
2023-10-15T18:43:42.474Z,1.30
2023-10-15T18:46:11.049Z,1.20
2023-10-15T18:48:38.663Z,1.20
2023-10-15T18:51:22.007Z,1.20
2023-10-15T18:53:55.644Z,1.30
2023-10-15T18:56:23.487Z,1.20
2023-10-15T18:58:52.016Z,1.23
2023-10-15T19:01:21.444Z,1.20
2023-10-15T19:03:50.001Z,1.10
2023-10-15T19:06:18.966Z,1.20
2023-10-15T19:08:46.544Z,1.03
2023-10-15T19:11:15.340Z,1.00
2023-10-15T19:13:43.204Z,1.20
2023-10-15T19:16:11.080Z,1.00
2023-10-15T19:18:41.465Z,1.10
2023-10-15T19:21:09.021Z,1.13
2023-10-15T19:23:37.975Z,1.20
2023-10-15T19:26:07.024Z,1.00
2023-10-15T19:28:35.229Z,1.30
2023-10-15T19:31:03.772Z,1.40
2023-10-15T19:33:31.971Z,1.10
2023-10-15T19:35:59.837Z,1.23
2023-10-15T19:38:27.480Z,1.33
2023-10-15T19:40:56.462Z,1.23
2023-10-15T19:43:24.085Z,1.30
2023-10-15T19:45:51.689Z,1.53
2023-10-15T19:48:19.978Z,1.70
2023-10-15T19:50:48.819Z,1.70
2023-10-15T19:53:16.315Z,1.70
2023-10-15T19:55:43.787Z,2.50
2023-10-15T19:58:12.837Z,1.80
2023-10-15T20:00:44.739Z,1.60
2023-10-15T20:03:13.254Z,1.43
2023-10-15T20:05:41.015Z,1.50
2023-10-15T20:08:08.493Z,1.40
2023-10-15T20:10:36.135Z,1.30
2023-10-15T20:13:03.863Z,1.40
2023-10-15T20:15:34.947Z,1.30
2023-10-15T20:18:02.898Z,1.37
2023-10-15T20:20:30.452Z,1.30
2023-10-15T20:22:57.918Z,1.27
2023-10-15T20:25:25.383Z,1.30
2023-10-15T20:27:52.880Z,1.23
2023-10-15T20:30:20.765Z,1.40
2023-10-15T20:35:20.692Z,1.50
2023-10-15T20:37:49.160Z,1.17
2023-10-15T20:40:16.774Z,1.70
2023-10-15T20:42:46.779Z,1.50
2023-10-15T20:45:16.044Z,1.67
2023-10-15T20:47:44.262Z,1.60
2023-10-15T20:50:15.624Z,1.40
2023-10-15T20:52:44.464Z,1.33
2023-10-15T20:55:12.915Z,1.60
2023-10-15T20:57:41.542Z,1.63
2023-10-15T21:00:13.006Z,1.60
2023-10-15T21:02:42.622Z,1.43
2023-10-15T21:05:11.492Z,1.60
2023-10-15T21:07:43.549Z,1.40
2023-10-15T21:10:12.923Z,1.50
2023-10-15T21:12:41.405Z,1.37
2023-10-15T21:15:10.727Z,1.70
2023-10-15T21:17:39.210Z,1.77
2023-10-15T21:20:10.998Z,1.60
2023-10-15T21:22:39.759Z,1.30
2023-10-15T21:25:11.206Z,1.50
2023-10-15T21:27:39.718Z,1.70
2023-10-15T21:30:08.650Z,1.60
2023-10-15T21:32:36.556Z,1.43
2023-10-15T21:35:06.938Z,1.60
2023-10-15T21:37:34.867Z,1.87
2023-10-15T21:40:02.356Z,1.80
2023-10-15T21:42:31.239Z,1.90
2023-10-15T21:44:58.733Z,1.67
2023-10-15T21:47:26.258Z,1.60
2023-10-15T21:49:56.777Z,1.50
2023-10-15T21:52:24.287Z,1.50
2023-10-15T21:54:51.788Z,1.50
2023-10-15T21:57:19.320Z,1.60
2023-10-15T21:59:48.794Z,1.57
2023-10-15T22:02:16.263Z,1.67
2023-10-15T22:04:43.826Z,1.33
2023-10-15T22:07:11.323Z,1.60
2023-10-15T22:09:39.141Z,1.37
2023-10-15T22:12:07.243Z,1.57
2023-10-15T22:14:35.721Z,1.40
2023-10-15T22:17:04.534Z,1.53
2023-10-15T22:19:34.109Z,1.40
2023-10-15T22:22:02.874Z,1.70
2023-10-15T22:24:30.375Z,1.70
2023-10-15T22:26:57.986Z,1.60
2023-10-15T22:29:37.693Z,1.50
2023-10-15T22:32:10.939Z,1.70
2023-10-15T22:34:39.167Z,1.50
2023-10-15T22:37:07.967Z,1.90
2023-10-15T22:39:37.549Z,1.50
2023-10-15T22:42:08.486Z,1.63
2023-10-15T22:44:36.773Z,1.67
2023-10-15T22:47:06.582Z,1.53
2023-10-15T22:49:35.428Z,1.57
2023-10-15T22:52:02.898Z,1.80
2023-10-15T22:54:30.426Z,1.30
2023-10-15T22:56:57.910Z,1.40
2023-10-15T22:59:26.179Z,1.50
2023-10-15T23:01:53.849Z,1.47
2023-10-15T23:04:21.462Z,1.50
2023-10-15T23:06:50.303Z,1.40
2023-10-15T23:09:19.181Z,1.87
2023-10-15T23:11:46.900Z,1.63
2023-10-15T23:14:14.553Z,1.70
2023-10-15T23:16:42.645Z,1.60
2023-10-15T23:19:15.632Z,1.67
2023-10-15T23:21:46.923Z,1.80
2023-10-15T23:24:15.793Z,1.90
2023-10-15T23:26:43.365Z,2.00
2023-10-15T23:29:10.965Z,1.70
2023-10-15T23:31:40.916Z,1.80
2023-10-15T23:34:09.593Z,1.93
2023-10-15T23:36:37.523Z,1.90
2023-10-15T23:39:08.305Z,1.90
2023-10-15T23:41:38.785Z,1.80
2023-10-15T23:44:09.879Z,2.10
2023-10-15T23:46:40.127Z,2.00
2023-10-15T23:49:12.438Z,1.87
2023-10-15T23:51:41.623Z,2.10
2023-10-15T23:54:15.705Z,2.13
2023-10-15T23:56:44.778Z,1.97
2023-10-15T23:59:16.799Z,1.70
